Time;durP1;ratioP1;P1;durP2;ratioP2;P2;SDS_P1;SDS_P2;PMS_P1;PMS_P2;Temp;Humidity;BMP_temperature;BMP_pressure;BME280_temperature;BME280_humidity;BME280_pressure;Samples;Min_cycle;Max_cycle;Signal;HPM_P1;HPM_P2
2023/06/22 00:04:18;;;;;;;5.35;3.13;;;;;;;19.82;67.84;100615.19;10140629;28;96895;-81
2023/06/22 00:09:22;;;;;;;6.45;3.10;;;;;;;20.01;67.32;100618.25;10140708;28;96587;-81
2023/06/22 00:14:25;;;;;;;4.38;2.72;;;;;;;19.62;68.20;100617.59;10139733;28;96823;-81
2023/06/22 00:19:30;;;;;;;4.43;2.90;;;;;;;19.61;68.78;100611.41;10140163;28;96697;-81
2023/06/22 00:24:33;;;;;;;5.00;2.85;;;;;;;19.65;68.44;100615.56;10139816;28;96653;-81
2023/06/22 00:29:36;;;;;;;3.88;2.40;;;;;;;19.86;68.02;100616.69;10139639;28;96793;-81
2023/06/22 00:34:42;;;;;;;4.20;2.90;;;;;;;19.64;68.33;100623.69;10140644;28;96882;-81
2023/06/22 00:39:46;;;;;;;4.57;2.60;;;;;;;19.84;67.92;100631.16;10139684;28;96895;-81
2023/06/22 00:44:49;;;;;;;3.67;2.35;;;;;;;19.90;67.65;100634.22;10138795;28;96898;-81
2023/06/22 00:49:54;;;;;;;6.80;2.47;;;;;;;19.86;67.69;100632.72;10138060;28;96643;-81
2023/06/22 00:55:01;;;;;;;5.50;3.22;;;;;;;19.83;67.75;100627.59;10138838;28;96814;-81
2023/06/22 01:00:08;;;;;;;4.88;2.95;;;;;;;19.69;68.13;100627.75;10139138;28;96837;-81
2023/06/22 01:05:14;;;;;;;4.40;3.00;;;;;;;19.50;68.99;100639.81;10138786;28;97157;-81
2023/06/22 01:10:26;;;;;;;5.78;2.90;;;;;;;19.20;69.59;100632.94;10138703;28;96752;-81
2023/06/22 01:15:34;;;;;;;4.85;2.90;;;;;;;19.26;69.60;100643.22;10137388;28;97336;-81
2023/06/22 01:20:39;;;;;;;3.75;2.53;;;;;;;19.23;69.68;100637.25;10138104;28;96833;-81
2023/06/22 01:25:48;;;;;;;5.70;2.80;;;;;;;19.30;69.56;100643.84;10138891;28;97204;-82
2023/06/22 01:31:03;;;;;;;4.88;2.40;;;;;;;19.15;69.92;100637.75;10138638;28;96834;-81
2023/06/22 01:36:08;;;;;;;3.70;2.47;;;;;;;18.89;70.79;100646.66;10137839;28;96740;-81
2023/06/22 01:41:12;;;;;;;5.10;3.00;;;;;;;19.26;69.59;100640.53;10136787;28;96599;-81
2023/06/22 01:46:19;;;;;;;5.20;2.77;;;;;;;19.28;69.53;100648.44;10137280;28;96775;-81
2023/06/22 01:51:22;;;;;;;3.80;2.55;;;;;;;19.26;69.25;100645.03;10137479;28;96570;-81
2023/06/22 01:56:27;;;;;;;4.65;2.90;;;;;;;18.98;70.36;100653.19;10136927;28;96739;-81
2023/06/22 02:01:40;;;;;;;6.13;2.90;;;;;;;19.12;69.79;100647.78;10136447;28;98337;-81
2023/06/22 02:06:46;;;;;;;4.28;2.67;;;;;;;19.01;70.38;100650.31;10137038;28;96651;-81
2023/06/22 02:11:54;;;;;;;4.95;3.08;;;;;;;19.15;69.78;100659.09;10136668;28;96759;-81
2023/06/22 02:16:59;;;;;;;4.68;3.10;;;;;;;18.90;70.41;100666.19;10137071;28;96707;-81
2023/06/22 02:22:03;;;;;;;5.22;2.60;;;;;;;18.77;70.99;100658.16;10136473;28;96858;-81
2023/06/22 02:27:07;;;;;;;4.47;2.83;;;;;;;18.69;70.95;100662.28;10136682;28;96966;-81
2023/06/22 02:32:11;;;;;;;5.27;2.90;;;;;;;18.61;71.28;100664.63;10134998;28;96810;-81
2023/06/22 02:37:15;;;;;;;3.95;2.63;;;;;;;18.43;71.77;100666.66;10136008;28;96782;-82
2023/06/22 02:42:20;;;;;;;4.00;2.83;;;;;;;18.54;71.50;100668.66;10136074;28;96881;-82
2023/06/22 02:47:25;;;;;;;5.38;3.10;;;;;;;18.62;71.36;100671.66;10135576;28;96863;-82
2023/06/22 02:52:28;;;;;;;5.80;3.50;;;;;;;18.85;70.47;100671.00;10135509;28;97455;-82
2023/06/22 02:57:32;;;;;;;4.63;2.80;;;;;;;18.79;70.47;100669.59;10135734;28;96764;-82
2023/06/22 03:02:37;;;;;;;4.72;2.67;;;;;;;18.53;71.16;100682.91;10135702;28;96732;-82
2023/06/22 03:07:42;;;;;;;4.40;2.92;;;;;;;18.26;71.76;100679.34;10135906;28;96762;-81
2023/06/22 03:12:45;;;;;;;6.40;3.08;;;;;;;18.13;72.54;100676.59;10136681;28;96634;-82
2023/06/22 03:17:50;;;;;;;4.65;2.67;;;;;;;18.55;71.52;100670.34;10141769;28;96721;-82
2023/06/22 03:22:53;;;;;;;4.63;2.70;;;;;;;18.66;70.83;100662.50;10140704;28;96553;-81
2023/06/22 03:27:57;;;;;;;4.67;3.10;;;;;;;18.75;70.72;100664.56;10141773;28;96704;-81
2023/06/22 03:33:02;;;;;;;5.25;2.75;;;;;;;18.67;70.73;100677.53;10141604;28;96720;-81
2023/06/22 03:38:05;;;;;;;4.03;2.67;;;;;;;18.32;71.80;100677.13;10141105;28;96790;-82
2023/06/22 03:43:09;;;;;;;4.57;2.90;;;;;;;18.10;72.63;100682.13;10141105;28;96735;-82
2023/06/22 03:48:14;;;;;;;3.65;2.47;;;;;;;18.17;72.33;100687.00;10150555;23;97140;-82
2023/06/22 03:53:18;;;;;;;5.88;2.80;;;;;;;18.11;72.34;100684.69;10140991;28;97573;-82
2023/06/22 03:58:22;;;;;;;4.13;2.73;;;;;;;18.05;72.71;100685.09;10142236;28;96646;-82
2023/06/22 04:03:27;;;;;;;4.15;2.72;;;;;;;18.14;72.31;100681.84;10140619;28;96625;-82
2023/06/22 04:08:31;;;;;;;3.95;2.83;;;;;;;18.18;72.07;100683.34;10140458;28;96681;-82
2023/06/22 04:13:34;;;;;;;4.57;3.05;;;;;;;18.00;72.81;100681.00;10139065;28;96871;-82
2023/06/22 04:18:39;;;;;;;5.22;3.10;;;;;;;17.90;72.76;100687.88;10140223;28;96658;-81
2023/06/22 04:23:44;;;;;;;4.93;3.25;;;;;;;18.15;72.51;100694.22;10139904;28;96873;-82
2023/06/22 04:28:55;;;;;;;5.05;3.10;;;;;;;17.99;72.39;100701.47;10139726;28;97317;-82
2023/06/22 04:34:05;;;;;;;6.03;3.42;;;;;;;18.01;72.90;100704.88;10139917;28;96685;-82
2023/06/22 04:39:10;;;;;;;4.05;2.90;;;;;;;18.11;72.50;100711.34;10139669;28;96842;-83
2023/06/22 04:44:23;;;;;;;4.10;2.72;;;;;;;18.18;72.13;100723.31;10139013;28;96604;-82
2023/06/22 04:49:32;;;;;;;7.80;3.30;;;;;;;17.83;73.06;100729.97;10100808;28;97013;-82
2023/06/22 04:54:37;;;;;;;6.03;2.95;;;;;;;17.99;73.32;100737.88;10099597;28;96758;-82
2023/06/22 04:59:41;;;;;;;4.20;2.97;;;;;;;18.28;72.38;100744.06;10100035;28;96723;-82
2023/06/22 05:04:51;;;;;;;5.95;3.10;;;;;;;18.49;72.03;100748.88;10126462;28;96886;-82
2023/06/22 05:09:54;;;;;;;6.53;4.03;;;;;;;18.14;73.10;100764.41;10138884;28;96669;-82
2023/06/22 05:14:58;;;;;;;6.43;3.22;;;;;;;18.27;72.79;100755.66;10138499;28;96921;-82
2023/06/22 05:20:06;;;;;;;5.38;3.50;;;;;;;18.26;72.76;100772.59;10138269;28;96833;-81
2023/06/22 05:25:10;;;;;;;5.38;2.70;;;;;;;18.11;73.07;100783.25;10138040;28;96693;-82
2023/06/22 05:30:16;;;;;;;4.43;2.97;;;;;;;18.11;73.24;100785.91;10137978;28;96794;-82
2023/06/22 05:35:23;;;;;;;4.97;3.30;;;;;;;18.22;72.54;100797.69;10136721;28;96878;-82
2023/06/22 05:40:27;;;;;;;;;;;;;;;17.92;73.79;100803.97;10138622;28;98279;-82
2023/06/22 05:45:30;;;;;;;4.83;2.93;;;;;;;18.00;73.33;100816.84;10137416;28;96899;-82
2023/06/22 05:50:35;;;;;;;5.15;2.97;;;;;;;18.10;73.09;100816.19;10135774;28;96796;-82
2023/06/22 05:55:39;;;;;;;5.93;3.38;;;;;;;18.23;73.04;100820.75;10136235;28;96852;-82
2023/06/22 06:00:43;;;;;;;5.50;3.35;;;;;;;18.19;72.96;100823.56;10137152;28;96742;-82
2023/06/22 06:05:47;;;;;;;5.73;3.23;;;;;;;18.25;73.20;100819.69;10137241;28;96904;-82
2023/06/22 06:10:52;;;;;;;5.93;3.22;;;;;;;18.33;73.15;100817.41;10136709;28;96663;-82
2023/06/22 06:15:56;;;;;;;5.00;3.42;;;;;;;18.45;73.03;100826.44;10136186;28;96743;-82
2023/06/22 06:21:00;;;;;;;4.68;3.40;;;;;;;18.47;72.67;100821.91;10136912;28;97146;-82
2023/06/22 06:26:06;;;;;;;;;;;;;;;18.67;72.94;100819.69;10136875;28;96634;-82
2023/06/22 06:31:12;;;;;;;6.75;3.47;;;;;;;18.75;71.87;100830.72;10137432;28;96858;-82
2023/06/22 06:36:17;;;;;;;5.28;3.38;;;;;;;18.75;72.09;100822.72;10135747;28;96766;-82
2023/06/22 06:41:22;;;;;;;6.70;3.97;;;;;;;18.87;71.91;100832.59;10136017;28;96866;-82
2023/06/22 06:46:25;;;;;;;5.88;3.65;;;;;;;19.02;71.66;100834.28;10134978;28;96706;-82
2023/06/22 06:51:30;;;;;;;6.53;4.10;;;;;;;18.89;72.45;100843.16;10143023;28;96697;-82
2023/06/22 06:56:34;;;;;;;6.80;3.95;;;;;;;19.15;71.86;100843.19;10142860;28;96917;-82
2023/06/22 07:01:38;;;;;;;6.80;4.28;;;;;;;19.34;71.38;100858.00;10142669;28;96571;-82
2023/06/22 07:06:43;;;;;;;6.82;4.13;;;;;;;19.35;71.64;100857.03;10142382;28;96678;-82
2023/06/22 07:11:46;;;;;;;7.30;4.68;;;;;;;19.25;72.17;100870.09;10142264;28;96773;-82
2023/06/22 07:16:50;;;;;;;8.30;4.65;;;;;;;19.08;72.66;100873.03;10142218;28;96777;-82
2023/06/22 07:21:55;;;;;;;8.75;5.72;;;;;;;19.02;73.05;100870.78;10142678;28;96786;-82
2023/06/22 07:26:59;;;;;;;7.75;4.78;;;;;;;19.64;71.38;100869.31;10141951;28;96762;-82
2023/06/22 07:32:04;;;;;;;8.32;4.78;;;;;;;19.76;71.35;100866.69;10141985;28;96764;-82
2023/06/22 07:37:10;;;;;;;7.25;5.15;;;;;;;19.93;71.21;100871.75;10140829;28;96727;-81
2023/06/22 07:42:32;;;;;;;9.60;5.30;;;;;;;19.95;70.83;100876.97;10135318;28;96706;-81
2023/06/22 07:47:36;;;;;;;9.30;5.53;;;;;;;19.94;71.01;100877.94;10140568;28;96749;-81
2023/06/22 07:52:41;;;;;;;11.87;6.17;;;;;;;20.05;70.97;100878.06;10141226;28;96856;-81
2023/06/22 07:57:45;;;;;;;10.23;6.70;;;;;;;20.46;70.17;100888.59;10140124;28;96650;-81
2023/06/22 08:02:48;;;;;;;9.95;6.15;;;;;;;20.40;70.72;100879.19;10141117;28;96584;-82
2023/06/22 08:07:54;;;;;;;7.67;5.10;;;;;;;20.68;70.12;100883.44;10140651;28;96918;-81
2023/06/22 08:12:58;;;;;;;8.07;4.90;;;;;;;20.57;70.52;100872.66;10141084;28;96700;-81
2023/06/22 08:18:02;;;;;;;8.35;5.15;;;;;;;20.85;70.56;100883.94;10139922;28;97163;-81
2023/06/22 08:23:07;;;;;;;8.23;4.97;;;;;;;20.78;70.33;100879.13;10140068;28;96684;-81
2023/06/22 08:28:11;;;;;;;6.65;4.32;;;;;;;20.84;70.27;100882.25;10138625;28;96805;-81
2023/06/22 08:33:14;;;;;;;6.47;4.35;;;;;;;21.39;68.77;100887.97;10139879;28;96743;-81
2023/06/22 08:38:31;;;;;;;8.57;4.00;;;;;;;21.52;68.11;100895.09;10139635;28;96705;-81
2023/06/22 08:43:34;;;;;;;6.97;4.70;;;;;;;21.36;68.41;100892.72;10138915;28;96730;-81
2023/06/22 08:48:38;;;;;;;7.20;4.47;;;;;;;21.57;68.17;100898.28;10139449;28;96751;-82
2023/06/22 08:53:43;;;;;;;7.55;4.53;;;;;;;21.51;68.14;100899.59;10137184;28;96783;-82
2023/06/22 08:58:46;;;;;;;8.23;5.00;;;;;;;21.89;67.29;100896.72;10138999;28;96739;-81
2023/06/22 09:03:54;;;;;;;7.63;4.72;;;;;;;21.99;66.86;100892.38;10139414;28;97145;-81
2023/06/22 09:09:00;;;;;;;6.15;4.03;;;;;;;22.39;66.02;100891.88;10138852;28;96732;-81
2023/06/22 09:14:05;;;;;;;7.65;4.72;;;;;;;22.65;65.97;100892.50;10138403;28;96670;-81
2023/06/22 09:19:08;;;;;;;5.65;4.00;;;;;;;22.90;65.05;100891.44;10137400;28;96830;-81
2023/06/22 09:24:13;;;;;;;6.27;4.10;;;;;;;22.98;64.80;100897.03;10138391;28;96648;-81
2023/06/22 09:29:16;;;;;;;6.57;4.40;;;;;;;23.06;64.60;100895.44;10137596;28;96594;-81
2023/06/22 09:34:20;;;;;;;6.75;4.28;;;;;;;23.29;64.19;100898.91;10137890;28;97095;-81
2023/06/22 09:39:25;;;;;;;6.57;4.30;;;;;;;23.57;63.66;100895.72;10137891;28;96960;-81
2023/06/22 09:44:28;;;;;;;5.18;3.33;;;;;;;23.66;63.78;100893.13;10137136;28;96889;-81
2023/06/22 09:49:32;;;;;;;8.75;4.50;;;;;;;23.48;64.45;100885.69;10137279;28;97131;-81
2023/06/22 09:54:51;;;;;;;6.63;4.28;;;;;;;23.66;64.12;100894.94;10138080;28;96686;-81
2023/06/22 09:59:54;;;;;;;6.38;4.43;;;;;;;23.90;63.84;100890.19;10137547;28;96996;-81
2023/06/22 10:04:57;;;;;;;5.60;3.77;;;;;;;24.24;63.08;100891.69;10137047;28;96750;-81
2023/06/22 10:10:03;;;;;;;5.90;3.88;;;;;;;24.79;62.64;100882.41;10135858;28;96776;-82
2023/06/22 10:15:08;;;;;;;5.80;3.55;;;;;;;24.89;62.86;100890.50;10136016;28;96859;-81
2023/06/22 10:20:12;;;;;;;5.60;3.95;;;;;;;25.21;62.73;100883.97;10136984;28;96708;-82
2023/06/22 10:25:17;;;;;;;4.78;3.55;;;;;;;25.44;61.83;100882.75;10135840;28;97218;-81
2023/06/22 10:30:21;;;;;;;4.10;3.33;;;;;;;25.59;61.31;100885.88;10136571;28;96828;-81
2023/06/22 10:35:24;;;;;;;5.78;3.75;;;;;;;25.79;60.90;100888.47;10136187;28;96709;-81
2023/06/22 10:40:29;;;;;;;4.70;3.22;;;;;;;25.81;59.85;100891.03;10136121;28;96984;-82
2023/06/22 10:45:32;;;;;;;3.35;2.70;;;;;;;25.87;59.17;100883.22;10136056;28;97750;-81
2023/06/22 10:50:36;;;;;;;3.53;2.70;;;;;;;26.14;57.99;100890.59;10135724;28;96800;-82
2023/06/22 10:55:41;;;;;;;3.60;2.60;;;;;;;26.16;57.48;100895.84;10135909;28;96891;-82
2023/06/22 11:00:59;;;;;;;5.95;3.05;;;;;;;26.16;56.88;100888.56;10134716;28;96631;-81
2023/06/22 11:06:03;;;;;;;3.30;2.80;;;;;;;26.34;56.29;100886.84;10135596;28;96834;-81
2023/06/22 11:11:08;;;;;;;3.40;2.55;;;;;;;26.61;55.40;100895.03;10135351;28;96672;-82
2023/06/22 11:16:12;;;;;;;4.00;2.78;;;;;;;26.50;55.61;100899.75;10135026;28;97393;-81
2023/06/22 11:21:15;;;;;;;3.47;2.75;;;;;;;26.70;55.04;100901.38;10135200;28;97262;-82
2023/06/22 11:26:21;;;;;;;4.25;2.92;;;;;;;26.77;54.67;100902.50;10135054;28;96857;-81
2023/06/22 11:31:24;;;;;;;3.35;2.40;;;;;;;26.76;54.10;100901.66;10134976;28;96850;-81
2023/06/22 11:36:32;;;;;;;4.60;3.00;;;;;;;26.86;54.13;100894.38;10140597;28;96713;-81
2023/06/22 11:41:37;;;;;;;3.83;2.90;;;;;;;26.99;52.86;100905.66;10141585;28;96705;-82
2023/06/22 11:46:40;;;;;;;3.75;2.83;;;;;;;26.86;52.94;100902.47;10140561;28;96772;-81
2023/06/22 11:51:44;;;;;;;3.45;2.83;;;;;;;27.20;52.52;100897.34;10138710;28;96832;-81
2023/06/22 11:56:48;;;;;;;5.07;2.40;;;;;;;27.43;52.58;100895.06;10140581;28;97573;-82
2023/06/22 12:01:52;;;;;;;4.85;3.05;;;;;;;27.55;51.87;100901.94;10140852;28;97297;-82
2023/06/22 12:07:13;;;;;;;3.95;3.08;;;;;;;27.78;51.75;100900.53;10140159;28;96932;-81
2023/06/22 12:12:18;;;;;;;3.67;2.80;;;;;;;27.80;50.93;100893.13;10140430;28;96647;-81
2023/06/22 12:17:21;;;;;;;3.58;2.72;;;;;;;27.75;50.49;100888.16;10140247;28;96707;-82
2023/06/22 12:22:24;;;;;;;3.97;2.63;;;;;;;28.00;50.17;100894.63;10140242;28;96761;-81
2023/06/22 12:27:30;;;;;;;4.20;2.67;;;;;;;28.18;49.84;100887.34;10140559;28;96722;-81
2023/06/22 12:32:33;;;;;;;3.38;2.42;;;;;;;28.18;49.36;100883.78;10139943;28;96774;-81
2023/06/22 12:37:37;;;;;;;3.70;3.20;;;;;;;28.34;49.61;100883.94;10139655;28;96693;-82
2023/06/22 12:42:42;;;;;;;3.42;2.47;;;;;;;28.56;49.01;100889.69;10138088;28;97050;-82
2023/06/22 12:47:45;;;;;;;3.25;2.63;;;;;;;28.67;48.54;100875.84;10138824;28;97651;-81
2023/06/22 12:52:49;;;;;;;4.05;2.65;;;;;;;28.84;48.02;100868.66;10139336;28;96583;-82
2023/06/22 12:57:54;;;;;;;4.00;2.83;;;;;;;29.06;47.92;100878.94;10138605;28;97414;-81
2023/06/22 13:02:58;;;;;;;3.28;2.33;;;;;;;29.38;47.88;100862.75;10139027;28;96683;-81
2023/06/22 13:08:01;;;;;;;3.70;2.53;;;;;;;29.33;47.52;100875.97;10138730;28;96608;-81
2023/06/22 13:13:07;;;;;;;3.25;2.50;;;;;;;29.30;46.70;100873.59;10138782;28;96834;-82
2023/06/22 13:18:11;;;;;;;3.83;2.90;;;;;;;29.39;47.09;100869.03;10139314;28;96941;-82
2023/06/22 13:23:14;;;;;;;;;;;;;;;29.44;46.23;100877.50;10138933;28;96711;-82
2023/06/22 13:28:20;;;;;;;2.80;2.27;;;;;;;29.42;46.51;100876.81;10138277;28;96754;-82
2023/06/22 13:33:31;;;;;;;3.30;2.40;;;;;;;29.50;46.38;100872.31;10137161;28;96957;-81
2023/06/22 13:38:34;;;;;;;;;;;;;;;29.33;44.83;100867.81;10138478;28;96952;-82
2023/06/22 13:43:38;;;;;;;3.72;2.67;;;;;;;29.61;45.98;100868.41;10137612;28;96783;-81
2023/06/22 13:48:59;;;;;;;3.65;2.53;;;;;;;29.54;45.52;100870.97;10136383;28;96798;-81
2023/06/22 13:54:20;;;;;;;2.92;2.28;;;;;;;29.74;45.12;100869.66;10131755;28;96907;-82
2023/06/22 13:59:42;;;;;;;4.05;2.88;;;;;;;29.70;44.54;100865.56;10130375;28;96618;-81
2023/06/22 14:04:46;;;;;;;3.65;2.83;;;;;;;29.92;45.20;100872.16;10137003;28;96767;-82
2023/06/22 14:09:49;;;;;;;3.17;2.65;;;;;;;29.95;44.71;100867.25;10137577;28;96808;-81
2023/06/22 14:14:54;;;;;;;3.40;2.55;;;;;;;29.91;43.75;100871.34;10136343;28;96675;-82
2023/06/22 14:19:57;;;;;;;4.22;3.22;;;;;;;29.90;44.80;100853.34;10136866;28;96691;-81
2023/06/22 14:25:01;;;;;;;4.22;3.20;;;;;;;29.90;44.69;100861.50;10135685;28;97079;-82
2023/06/22 14:30:08;;;;;;;4.68;3.25;;;;;;;29.88;45.08;100852.66;10136520;28;96690;-81
2023/06/22 14:35:11;;;;;;;3.97;3.10;;;;;;;30.16;44.69;100845.06;10136061;28;97219;-82
2023/06/22 14:40:16;;;;;;;4.57;3.35;;;;;;;30.15;44.79;100838.78;10135838;28;96784;-81
2023/06/22 14:45:20;;;;;;;4.30;3.30;;;;;;;30.05;44.46;100845.38;10135727;28;97341;-82
2023/06/22 14:50:24;;;;;;;5.65;3.80;;;;;;;30.11;44.31;100836.56;10136021;28;96708;-81
2023/06/22 14:55:27;;;;;;;5.13;3.75;;;;;;;30.37;44.69;100837.19;10134298;28;97018;-82
2023/06/22 15:00:32;;;;;;;;;;;;;;;30.23;44.56;100838.75;10137020;28;96650;-81
2023/06/22 15:05:35;;;;;;;4.57;3.30;;;;;;;30.15;44.54;100832.50;10135759;28;97672;-82
2023/06/22 15:10:40;;;;;;;4.57;3.38;;;;;;;30.12;44.60;100838.28;10141273;28;96685;-82
2023/06/22 15:15:45;;;;;;;4.55;3.40;;;;;;;30.16;44.76;100836.94;10141182;28;97153;-82
2023/06/22 15:20:48;;;;;;;5.28;3.60;;;;;;;30.01;45.43;100842.16;10142235;28;96719;-81
2023/06/22 15:25:51;;;;;;;;;;;;;;;30.16;45.53;100845.91;10142399;28;96630;-82
2023/06/22 15:30:56;;;;;;;4.35;3.42;;;;;;;29.94;45.08;100832.13;10141942;28;96790;-82
2023/06/22 15:36:03;;;;;;;4.78;3.50;;;;;;;29.87;45.85;100834.69;10141879;28;96618;-82
2023/06/22 15:41:07;;;;;;;5.95;4.10;;;;;;;30.10;45.25;100841.16;10141495;28;96802;-82
2023/06/22 15:46:12;;;;;;;;;;;;;;;30.06;45.74;100845.19;10141349;28;96900;-81
2023/06/22 15:51:15;;;;;;;5.60;4.25;;;;;;;29.96;45.47;100844.53;10142216;28;96832;-81
2023/06/22 15:56:20;;;;;;;;;;;;;;;29.92;45.52;100845.03;10141499;28;96996;-81
2023/06/22 16:01:25;;;;;;;5.97;4.25;;;;;;;29.75;46.19;100846.06;10141174;28;96764;-81
2023/06/22 16:06:28;;;;;;;5.72;4.50;;;;;;;29.54;46.64;100838.41;10139534;28;96863;-81
2023/06/22 16:11:31;;;;;;;;;;;;;;;29.53;46.91;100844.88;10141001;28;97724;-81
2023/06/22 16:16:36;;;;;;;6.13;4.53;;;;;;;29.09;48.01;100838.81;10168613;23;98600;-81
2023/06/22 16:21:39;;;;;;;6.13;4.35;;;;;;;29.15;48.05;100842.72;10179321;28;97596;-81
2023/06/22 16:27:01;;;;;;;6.55;5.03;;;;;;;29.12;48.23;100843.88;10178496;28;96814;-82
2023/06/22 16:32:07;;;;;;;5.90;4.53;;;;;;;29.10;48.42;100840.47;10179397;28;97838;-81
2023/06/22 16:37:10;;;;;;;6.50;4.65;;;;;;;29.05;49.05;100848.25;10179606;28;96783;-81
2023/06/22 16:42:13;;;;;;;5.40;4.60;;;;;;;28.99;49.00;100854.34;10180354;28;97496;-81
2023/06/22 16:47:18;;;;;;;6.10;5.03;;;;;;;28.90;49.24;100858.00;10179110;28;96645;-81
2023/06/22 16:52:21;;;;;;;6.90;5.18;;;;;;;28.74;49.91;100855.22;10179114;28;96912;-81
2023/06/22 16:57:25;;;;;;;6.43;4.68;;;;;;;28.49;50.75;100857.97;10177867;28;96671;-81
2023/06/22 17:02:34;;;;;;;6.80;5.40;;;;;;;28.37;50.88;100861.97;10178723;28;96740;-81
2023/06/22 17:07:42;;;;;;;6.47;5.00;;;;;;;28.40;50.90;100858.91;10179101;28;97078;-81
2023/06/22 17:12:46;;;;;;;6.35;4.72;;;;;;;28.34;51.04;100865.84;10178067;28;96795;-82
2023/06/22 17:17:54;;;;;;;6.40;5.13;;;;;;;28.32;51.17;100858.88;10177872;28;96902;-82
2023/06/22 17:22:58;;;;;;;5.82;4.53;;;;;;;28.19;51.29;100872.81;10177724;28;96841;-81
2023/06/22 17:28:02;;;;;;;6.53;4.78;;;;;;;27.81;52.12;100876.72;10178080;28;96801;-81
2023/06/22 17:33:09;;;;;;;7.38;4.50;;;;;;;27.89;51.82;100871.38;10177333;28;96722;-81
2023/06/22 17:38:21;;;;;;;5.82;4.32;;;;;;;27.98;51.73;100883.97;10177654;28;96657;-81
2023/06/22 17:43:24;;;;;;;6.03;4.55;;;;;;;27.62;52.31;100892.22;10177574;28;96796;-82
2023/06/22 17:48:32;;;;;;;5.50;4.35;;;;;;;27.66;52.33;100888.22;10176636;28;96707;-82
2023/06/22 17:53:35;;;;;;;5.18;4.05;;;;;;;27.69;52.20;100898.75;10177002;28;96688;-81
2023/06/22 17:58:38;;;;;;;6.75;4.50;;;;;;;27.47;51.85;100905.44;10177156;28;96856;-81
2023/06/22 18:03:45;;;;;;;6.38;3.90;;;;;;;27.38;52.12;100913.59;10176768;28;96936;-82
2023/06/22 18:08:51;;;;;;;5.18;3.85;;;;;;;27.22;52.06;100925.06;10176601;28;96831;-82
2023/06/22 18:13:55;;;;;;;4.57;3.47;;;;;;;26.99;51.76;100919.19;10176273;28;96620;-81
2023/06/22 18:19:01;;;;;;;5.93;3.40;;;;;;;26.89;52.11;100914.81;10176513;28;96753;-82
2023/06/22 18:24:06;;;;;;;4.43;3.35;;;;;;;26.88;52.24;100937.44;10177634;28;97049;-81
2023/06/22 18:29:10;;;;;;;4.90;3.88;;;;;;;26.89;52.23;100937.28;10176089;28;96789;-82
2023/06/22 18:34:15;;;;;;;5.70;3.47;;;;;;;26.80;53.04;100935.47;10175644;28;96704;-82
2023/06/22 18:39:20;;;;;;;5.68;4.03;;;;;;;26.71;52.83;100936.38;10174958;28;96824;-81
2023/06/22 18:44:26;;;;;;;5.53;3.85;;;;;;;26.51;53.79;100933.84;10179826;28;96663;-81
2023/06/22 18:49:34;;;;;;;6.22;4.03;;;;;;;26.39;53.95;100941.25;10183116;28;96702;-82
2023/06/22 18:54:40;;;;;;;5.25;3.72;;;;;;;26.35;53.89;100938.97;10182609;28;96953;-82
2023/06/22 18:59:53;;;;;;;5.28;3.50;;;;;;;26.25;54.10;100947.06;10182425;28;96901;-81
2023/06/22 19:05:07;;;;;;;5.40;3.80;;;;;;;26.15;55.10;100940.84;10182895;28;96987;-82
2023/06/22 19:10:23;;;;;;;5.13;3.42;;;;;;;26.17;54.57;100946.09;10182335;28;96900;-82
2023/06/22 19:15:32;;;;;;;4.13;3.35;;;;;;;25.99;54.77;100948.66;10182454;28;96839;-82
2023/06/22 19:20:39;;;;;;;5.38;3.92;;;;;;;26.07;54.53;100953.34;10181988;28;96856;-82
2023/06/22 19:25:46;;;;;;;4.82;3.45;;;;;;;25.95;54.32;100957.19;10181923;28;97065;-81
2023/06/22 19:30:51;;;;;;;4.78;3.38;;;;;;;25.93;54.35;100951.94;10180659;28;96776;-82
2023/06/22 19:35:57;;;;;;;3.75;2.90;;;;;;;25.86;54.14;100956.19;10181514;28;97277;-81
2023/06/22 19:41:01;;;;;;;6.00;3.80;;;;;;;25.86;54.40;100961.56;10181604;28;96788;-82
2023/06/22 19:46:04;;;;;;;5.00;3.33;;;;;;;25.74;54.29;100971.63;10180714;28;97662;-82
2023/06/22 19:51:09;;;;;;;4.83;3.53;;;;;;;25.67;54.72;100962.38;10181086;28;98686;-81
2023/06/22 19:56:13;;;;;;;4.15;3.13;;;;;;;25.52;55.21;100965.63;10162976;28;96704;-82
2023/06/22 20:01:41;;;;;;;4.30;3.10;;;;;;;25.36;55.68;100963.44;10135033;28;96608;-81
2023/06/22 20:07:04;;;;;;;5.75;3.72;;;;;;;25.21;56.76;100969.34;10178188;28;96730;-81
2023/06/22 20:12:10;;;;;;;5.03;3.53;;;;;;;25.13;57.21;100970.03;10180647;28;96670;-82
2023/06/22 20:17:16;;;;;;;5.05;3.50;;;;;;;25.01;57.51;100978.31;10180216;28;96816;-81
2023/06/22 20:22:20;;;;;;;5.93;4.05;;;;;;;24.97;57.57;100979.53;10179035;28;96788;-81
2023/06/22 20:27:26;;;;;;;4.82;3.50;;;;;;;24.73;58.65;100982.53;10179851;28;96943;-81
2023/06/22 20:32:32;;;;;;;3.88;3.00;;;;;;;24.57;59.10;100998.28;10180222;28;96831;-81
2023/06/22 20:37:37;;;;;;;4.70;3.83;;;;;;;24.42;59.61;100997.78;10179428;28;97365;-81
2023/06/22 20:42:40;;;;;;;5.88;3.95;;;;;;;24.38;59.67;101006.22;10179531;28;96768;-81
2023/06/22 20:47:44;;;;;;;6.47;3.97;;;;;;;24.29;59.86;101009.72;10179152;28;96808;-81
2023/06/22 20:52:51;;;;;;;5.00;3.40;;;;;;;24.13;60.39;101010.13;10179076;28;97094;-81
2023/06/22 20:57:55;;;;;;;4.53;3.50;;;;;;;24.04;60.47;101020.78;10148885;28;97089;-81
2023/06/22 21:02:59;;;;;;;7.15;3.78;;;;;;;23.89;60.93;101020.22;10138849;28;96880;-81
2023/06/22 21:08:04;;;;;;;5.63;3.53;;;;;;;23.91;61.15;101025.47;10138581;28;96671;-81
2023/06/22 21:13:09;;;;;;;6.22;3.72;;;;;;;23.80;61.35;101023.69;10160871;28;96881;-81
2023/06/22 21:18:12;;;;;;;6.13;3.58;;;;;;;23.78;61.38;101032.84;10178080;28;96647;-81
2023/06/22 21:23:16;;;;;;;7.37;4.07;;;;;;;23.61;62.17;101039.59;10178518;28;97032;-81
2023/06/22 21:28:20;;;;;;;7.80;5.10;;;;;;;23.66;62.17;101035.56;10178212;28;96762;-81
2023/06/22 21:33:23;;;;;;;7.83;4.33;;;;;;;23.69;62.07;101042.50;10178174;28;96886;-81
2023/06/22 21:38:28;;;;;;;8.73;4.78;;;;;;;23.66;62.41;101040.06;10177820;28;96790;-82
2023/06/22 21:43:32;;;;;;;6.80;4.40;;;;;;;23.56;62.79;101036.44;10177399;28;96953;-82
2023/06/22 21:48:35;;;;;;;5.95;4.22;;;;;;;23.35;63.28;101041.66;10178470;28;96727;-81
2023/06/22 21:53:40;;;;;;;6.20;4.53;;;;;;;23.22;63.97;101053.47;10176896;28;96745;-82
2023/06/22 21:58:43;;;;;;;6.00;4.38;;;;;;;23.30;63.63;101043.00;10177135;28;96762;-81
2023/06/22 22:03:46;;;;;;;6.47;4.57;;;;;;;23.12;64.38;101042.63;10175845;28;96612;-82
2023/06/22 22:08:51;;;;;;;5.70;4.40;;;;;;;23.23;64.03;101036.41;10176936;28;97079;-81
2023/06/22 22:13:55;;;;;;;6.00;3.70;;;;;;;23.02;64.66;101038.97;10175979;28;96785;-82
2023/06/22 22:18:58;;;;;;;6.60;4.57;;;;;;;22.82;64.92;101036.13;10175859;28;96849;-81
2023/06/22 22:24:02;;;;;;;6.68;3.85;;;;;;;22.79;65.12;101033.66;10176624;28;96930;-81
2023/06/22 22:29:06;;;;;;;5.50;4.10;;;;;;;22.83;65.06;101037.81;10176792;28;96910;-81
2023/06/22 22:34:10;;;;;;;6.13;3.90;;;;;;;22.94;64.79;101038.69;10175820;28;96756;-81
2023/06/22 22:39:29;;;;;;;5.65;3.85;;;;;;;22.66;65.27;101043.63;10176736;28;96710;-81
2023/06/22 22:44:32;;;;;;;8.65;5.07;;;;;;;22.70;65.56;101045.09;10176225;28;96764;-81
2023/06/22 22:49:36;;;;;;;5.57;4.27;;;;;;;22.50;66.16;101049.31;10175940;28;96769;-81
2023/06/22 22:54:42;;;;;;;7.28;4.32;;;;;;;22.43;66.15;101054.28;10174467;28;97738;-81
2023/06/22 22:59:46;;;;;;;6.43;4.20;;;;;;;22.41;66.12;101058.03;10175682;28;96747;-81
2023/06/22 23:04:55;;;;;;;5.05;4.15;;;;;;;22.39;66.21;101044.75;10175649;28;96674;-81
2023/06/22 23:10:00;;;;;;;6.32;4.50;;;;;;;22.29;66.25;101041.06;10175435;28;97033;-82
2023/06/22 23:15:04;;;;;;;6.22;4.47;;;;;;;22.29;66.57;101043.75;10174699;28;96801;-82
2023/06/22 23:20:09;;;;;;;6.85;4.28;;;;;;;22.00;66.87;101041.53;10175178;28;96688;-81
2023/06/22 23:25:14;;;;;;;6.90;4.32;;;;;;;22.16;67.03;101042.94;10174937;28;96778;-81
2023/06/22 23:30:17;;;;;;;5.35;4.03;;;;;;;22.13;66.79;101051.22;10179220;28;97044;-81